Time;durP1;ratioP1;P1;durP2;ratioP2;P2;SDS_P1;SDS_P2;PMS_P1;PMS_P2;Temp;Humidity;BMP_temperature;BMP_pressure;BME280_temperature;BME280_humidity;BME280_pressure;Samples;Min_cycle;Max_cycle;Signal;HPM_P1;HPM_P2
2022/04/23 00:05:49;;;;;;;20.70;15.20;;;;;;;0.94;71.50;98920.75;447799;1269;142830;-63
2022/04/23 00:15:55;;;;;;;18.90;14.60;;;;;;;0.73;71.78;98913.19;437103;1268;142186;-63
2022/04/23 00:26:01;;;;;;;21.60;16.00;;;;;;;0.56;72.06;98904.81;447081;1269;143475;-62
2022/04/23 00:36:09;;;;;;;33.40;21.20;;;;;;;0.66;72.59;98892.95;443809;1267;146401;-63
2022/04/23 00:46:15;;;;;;;26.10;18.70;;;;;;;0.79;72.41;98886.46;446556;1267;141953;-62
2022/04/23 00:56:22;;;;;;;30.00;19.80;;;;;;;0.79;72.75;98877.82;443974;1267;142602;-62
2022/04/23 01:06:27;;;;;;;;;;;;;;;0.72;73.24;98877.59;446420;1267;144334;-62
2022/04/23 01:16:33;;;;;;;28.50;20.10;;;;;;;0.60;73.49;98875.73;437199;1268;128009;-63
2022/04/23 01:26:39;;;;;;;28.70;20.80;;;;;;;0.45;73.76;98870.06;436117;1267;141850;-62
2022/04/23 01:36:44;;;;;;;27.30;18.80;;;;;;;0.25;74.19;98870.70;430883;1268;141622;-62
2022/04/23 01:46:50;;;;;;;27.20;19.40;;;;;;;0.10;74.66;98855.69;442870;1270;142838;-62
2022/04/23 01:56:59;;;;;;;30.90;20.40;;;;;;;-0.04;74.96;98848.06;439166;1268;141781;-64
2022/04/23 02:07:06;;;;;;;29.00;18.90;;;;;;;-0.13;75.20;98844.74;445667;1267;142560;-62
2022/04/23 02:17:11;;;;;;;30.60;19.80;;;;;;;-0.20;75.27;98835.15;438440;1270;142818;-61
2022/04/23 02:27:17;;;;;;;25.50;18.70;;;;;;;-0.22;75.71;98831.46;445671;1268;142919;-63
2022/04/23 02:37:23;;;;;;;25.30;16.90;;;;;;;-0.20;76.21;98829.33;447265;1268;142151;-63
2022/04/23 02:47:30;;;;;;;23.20;16.10;;;;;;;-0.26;75.96;98827.09;448034;1267;143192;-63
2022/04/23 02:57:35;;;;;;;26.20;19.10;;;;;;;-0.31;76.36;98825.19;448016;1268;143408;-63
2022/04/23 03:07:41;;;;;;;27.70;19.90;;;;;;;-0.31;76.09;98814.68;447298;1267;142846;-63
2022/04/23 03:17:48;;;;;;;35.80;22.40;;;;;;;-0.39;76.44;98812.36;441245;1269;142237;-63
2022/04/23 03:27:53;;;;;;;33.60;23.50;;;;;;;-0.36;77.48;98815.73;433182;1268;142284;-62
2022/04/23 03:38:03;;;;;;;34.40;23.30;;;;;;;-0.40;77.33;98813.45;437256;1266;142166;-64
2022/04/23 03:48:09;;;;;;;36.30;25.40;;;;;;;-0.36;77.75;98814.69;445400;1268;141951;-63
2022/04/23 03:58:16;;;;;;;36.40;25.30;;;;;;;-0.27;77.66;98819.21;447311;1267;141735;-63
2022/04/23 04:08:21;;;;;;;32.60;23.60;;;;;;;-0.00;77.42;98824.89;448083;1267;143389;-64
2022/04/23 04:18:27;;;;;;;34.60;26.30;;;;;;;0.42;77.18;98819.02;448090;1267;142957;-65
2022/04/23 04:28:34;;;;;;;66.20;29.80;;;;;;;0.93;76.96;98811.87;447291;1268;141891;-64
2022/04/23 04:38:39;;;;;;;34.90;25.60;;;;;;;1.66;77.27;98801.13;448029;1268;141403;-63
2022/04/23 04:48:46;;;;;;;36.20;24.60;;;;;;;2.25;76.18;98804.13;447302;1268;163220;-64
2022/04/23 04:58:52;;;;;;;32.90;23.80;;;;;;;2.84;75.77;98809.15;446946;1267;143029;-64
2022/04/23 05:08:57;;;;;;;21.40;19.10;;;;;;;4.31;75.80;98811.01;443966;1268;142336;-63
2022/04/23 05:19:03;;;;;;;15.70;13.40;;;;;;;12.65;71.51;98787.42;441731;1268;142286;-65
2022/04/23 05:29:09;;;;;;;14.80;13.10;;;;;;;20.27;60.48;98775.95;448046;1267;142983;-65
2022/04/23 05:39:15;;;;;;;15.60;13.70;;;;;;;25.09;51.43;98764.05;438673;1268;143254;-64
2022/04/23 05:49:27;;;;;;;12.00;10.90;;;;;;;28.13;44.20;98766.94;446782;1267;144009;-64
2022/04/23 05:59:52;;;;;;;12.40;11.20;;;;;;;29.64;38.67;98760.17;447657;1269;141814;-66
2022/04/23 06:09:58;;;;;;;13.50;12.20;;;;;;;29.93;34.70;98764.55;447327;1267;141765;-66
2022/04/23 06:20:06;;;;;;;13.10;11.50;;;;;;;25.47;34.29;98768.08;448033;1267;141682;-65
2022/04/23 06:30:12;;;;;;;9.30;8.40;;;;;;;27.69;33.43;98758.92;448023;1267;141707;-66
2022/04/23 06:40:18;;;;;;;9.90;9.10;;;;;;;31.90;30.05;98757.57;447189;1267;143198;-65
2022/04/23 06:50:24;;;;;;;8.30;7.60;;;;;;;34.15;27.38;98751.89;447778;1268;145343;-65
2022/04/23 07:00:29;;;;;;;9.20;8.20;;;;;;;35.82;25.97;98749.64;448088;1268;142427;-65
2022/04/23 07:10:37;;;;;;;9.40;7.20;;;;;;;37.59;23.32;98760.65;447009;1269;142815;-66
2022/04/23 07:20:43;;;;;;;5.50;5.20;;;;;;;37.14;22.08;98763.19;448131;1266;143800;-66
2022/04/23 07:30:50;;;;;;;7.20;6.60;;;;;;;36.48;21.34;98751.40;447278;1267;142152;-62
2022/04/23 07:40:56;;;;;;;8.80;5.90;;;;;;;34.77;22.08;98752.88;448111;1267;141963;-63
2022/04/23 07:51:02;;;;;;;4.50;4.20;;;;;;;37.76;20.12;98753.77;447704;1266;141311;-61
2022/04/23 08:01:08;;;;;;;5.20;4.80;;;;;;;38.23;19.50;98751.72;445611;1267;142330;-62
2022/04/23 08:11:14;;;;;;;3.60;3.40;;;;;;;37.68;19.10;98747.36;447638;1269;141603;-62
2022/04/23 08:21:20;;;;;;;5.70;3.80;;;;;;;35.50;19.04;98747.39;447640;1269;143612;-62
2022/04/23 08:31:25;;;;;;;4.90;4.50;;;;;;;27.07;22.34;98738.02;446907;1269;142287;-62
2022/04/23 08:41:32;;;;;;;4.00;3.60;;;;;;;21.41;26.91;98744.70;447894;1266;142321;-62
2022/04/23 08:51:48;;;;;;;6.50;5.00;;;;;;;19.10;30.07;98739.17;446897;1267;162251;-62
2022/04/23 09:01:54;;;;;;;5.00;4.30;;;;;;;17.97;32.22;98730.73;445309;1269;141770;-60
2022/04/23 09:12:01;;;;;;;5.50;5.00;;;;;;;17.39;33.71;98724.34;447916;1266;141140;-61
2022/04/23 09:32:30;;;;;;;6.40;5.90;;;;;;;16.06;35.88;98719.02;438705;1267;141284;-60
2022/04/23 09:42:36;;;;;;;6.10;5.50;;;;;;;15.84;36.42;98711.62;446052;1266;146796;-61
2022/04/23 09:52:42;;;;;;;7.60;5.90;;;;;;;15.62;37.36;98711.51;447089;1267;140921;-61
2022/04/23 10:03:06;;;;;;;6.20;5.30;;;;;;;15.84;37.81;98718.67;447974;1266;141171;-62
2022/04/23 10:13:13;;;;;;;5.50;5.00;;;;;;;16.15;37.44;98720.88;447214;1266;142380;-61
2022/04/23 10:23:28;;;;;;;6.00;5.50;;;;;;;15.27;38.34;98724.39;448075;1267;141374;-63
2022/04/23 10:33:46;;;;;;;10.00;6.60;;;;;;;15.30;38.97;98724.23;448020;1267;141286;-62
2022/04/23 10:43:58;;;;;;;7.50;6.70;;;;;;;15.23;39.46;98724.10;448015;1267;143423;-62
2022/04/23 10:54:04;;;;;;;11.90;8.90;;;;;;;15.04;40.05;98718.16;447846;1267;141566;-62
2022/04/23 11:04:20;;;;;;;7.50;6.70;;;;;;;14.65;40.70;98717.70;447225;1267;143043;-60
2022/04/23 11:14:47;;;;;;;8.40;6.00;;;;;;;14.95;40.94;98715.77;448020;1267;141356;-59
2022/04/23 11:24:53;;;;;;;7.00;6.40;;;;;;;15.71;40.13;98707.93;447163;1265;141752;-59
2022/04/23 11:35:01;;;;;;;9.70;5.60;;;;;;;16.36;39.25;98697.77;447853;1267;142393;-64
2022/04/23 11:45:09;;;;;;;6.60;5.40;;;;;;;16.13;38.39;98701.53;444119;1267;141654;-59
2022/04/23 11:55:22;;;;;;;;;;;;;;;15.83;39.12;98704.85;437744;1267;324667;-59
2022/04/23 12:05:30;;;;;;;11.80;6.80;;;;;;;15.33;39.31;98696.52;434053;1267;129689;-61
2022/04/23 12:15:44;;;;;;;8.10;5.30;;;;;;;14.58;40.13;98690.05;447924;1267;142432;-62
2022/04/23 12:26:11;;;;;;;6.10;5.60;;;;;;;14.65;40.90;98675.68;447990;1267;141515;-60
2022/04/23 12:46:55;;;;;;;5.00;4.60;;;;;;;15.03;39.51;98662.20;447113;1267;141556;-61
2022/04/23 12:57:01;;;;;;;5.00;4.50;;;;;;;14.88;40.06;98666.48;442583;1267;141374;-59
2022/04/23 13:17:31;;;;;;;6.60;5.40;;;;;;;15.32;39.33;98646.34;447931;1267;144447;-59
2022/04/23 13:27:36;;;;;;;5.50;5.00;;;;;;;14.60;41.08;98648.81;447867;1267;141853;-60
2022/04/23 13:37:44;;;;;;;6.30;4.50;;;;;;;14.37;41.66;98653.27;446578;1268;141376;-62
2022/04/23 13:47:52;;;;;;;6.90;4.30;;;;;;;14.75;41.04;98644.57;447757;1268;141790;-60
2022/04/23 13:57:58;;;;;;;4.90;4.00;;;;;;;14.77;40.46;98631.73;443445;1266;141540;-61
2022/04/23 14:18:28;;;;;;;10.10;5.50;;;;;;;14.01;41.99;98637.67;448080;1265;140994;-59
2022/04/23 14:28:33;;;;;;;11.80;7.40;;;;;;;13.80;42.50;98642.72;447169;1268;142062;-58
2022/04/23 14:38:46;;;;;;;7.00;5.70;;;;;;;13.42;43.06;98652.32;447733;1269;142242;-59
2022/04/23 14:48:52;;;;;;;7.50;6.50;;;;;;;13.17;43.86;98643.70;447082;1268;142382;-58
2022/04/23 14:59:00;;;;;;;11.20;4.50;;;;;;;13.01;43.95;98645.55;447911;1267;144550;-55
2022/04/23 15:09:06;;;;;;;5.20;4.70;;;;;;;13.11;43.62;98644.36;443602;1267;143028;-56
2022/04/23 15:19:16;;;;;;;5.60;4.40;;;;;;;13.32;43.29;98641.95;446369;1269;142708;-57
2022/04/23 15:29:22;;;;;;;4.80;4.30;;;;;;;13.34;42.97;98638.61;443972;1265;141370;-58
2022/04/23 15:39:28;;;;;;;4.20;3.80;;;;;;;13.11;42.96;98638.88;448069;1265;142661;-61
2022/04/23 15:49:33;;;;;;;4.40;4.00;;;;;;;12.98;43.37;98634.04;446990;1267;142976;-59
2022/04/23 15:59:39;;;;;;;4.20;3.80;;;;;;;13.18;43.10;98632.44;436596;1268;146783;-59
2022/04/23 16:09:46;;;;;;;4.80;3.60;;;;;;;13.36;42.85;98627.68;447292;1268;142094;-59
2022/04/23 16:19:52;;;;;;;6.50;3.70;;;;;;;13.29;42.82;98622.76;447926;1266;141180;-59
2022/04/23 16:30:01;;;;;;;4.40;4.00;;;;;;;13.07;43.05;98613.75;447717;1269;141765;-59
2022/04/23 16:50:39;;;;;;;5.10;4.30;;;;;;;12.66;43.59;98603.55;444825;1267;144400;-60
2022/04/23 17:00:45;;;;;;;4.30;3.90;;;;;;;12.82;43.39;98605.08;447094;1266;141927;-60
2022/04/23 17:10:51;;;;;;;5.30;4.70;;;;;;;12.62;43.42;98607.02;442028;1268;141646;-59
2022/04/23 17:20:57;;;;;;;5.40;4.90;;;;;;;12.21;43.81;98607.09;447980;1266;143593;-60
2022/04/23 17:31:03;;;;;;;7.40;4.70;;;;;;;11.83;44.53;98610.97;447089;1266;141255;-60
2022/04/23 17:41:08;;;;;;;7.40;5.10;;;;;;;11.44;45.21;98614.35;447979;1267;141825;-60
2022/04/23 17:51:15;;;;;;;6.20;5.30;;;;;;;11.00;46.09;98610.58;447962;1267;140834;-60
2022/04/23 18:11:45;;;;;;;14.20;6.80;;;;;;;10.03;49.16;98612.40;448004;1268;141482;-60
2022/04/23 18:21:51;;;;;;;14.10;7.80;;;;;;;9.56;50.54;98619.95;443834;1270;141890;-59
2022/04/23 18:31:56;;;;;;;11.60;7.50;;;;;;;9.14;51.23;98631.43;447547;1269;142162;-59
2022/04/23 18:42:03;;;;;;;21.00;9.20;;;;;;;8.67;52.57;98642.81;440820;1269;143301;-59
2022/04/23 18:52:09;;;;;;;20.80;14.70;;;;;;;8.22;53.98;98641.76;436467;1267;144901;-60
2022/04/23 19:02:20;;;;;;;20.00;15.00;;;;;;;7.78;54.78;98646.79;436123;1267;141296;-59
2022/04/23 19:12:26;;;;;;;25.50;16.90;;;;;;;7.37;55.38;98656.48;448065;1268;142561;-60
2022/04/23 19:32:56;;;;;;;39.20;25.10;;;;;;;6.81;57.03;98662.34;435137;1268;141566;-59
2022/04/23 19:43:01;;;;;;;35.10;19.10;;;;;;;6.55;57.94;98662.67;447237;1267;141344;-59
2022/04/23 19:53:07;;;;;;;33.70;23.80;;;;;;;6.31;58.72;98659.66;447822;1268;141129;-60
2022/04/23 20:03:14;;;;;;;46.60;29.70;;;;;;;6.12;59.38;98661.13;442214;1267;143180;-59
2022/04/23 20:13:20;;;;;;;40.00;28.80;;;;;;;6.00;59.88;98663.05;446956;1268;144108;-60
2022/04/23 20:23:26;;;;;;;35.90;26.20;;;;;;;5.80;60.17;98661.92;447775;1267;142076;-61
2022/04/23 20:33:31;;;;;;;33.40;22.90;;;;;;;5.65;61.00;98656.75;435658;1266;141383;-59
2022/04/23 20:43:37;;;;;;;37.30;26.90;;;;;;;5.46;61.38;98650.54;446950;1267;141783;-60
2022/04/23 20:53:43;;;;;;;37.50;24.50;;;;;;;5.26;61.81;98651.88;443648;1267;142633;-60
2022/04/23 21:03:51;;;;;;;35.60;27.70;;;;;;;4.99;62.01;98653.56;447101;1267;143047;-61
2022/04/23 21:13:57;;;;;;;45.60;29.70;;;;;;;4.78;62.40;98655.20;447828;1266;142203;-61
2022/04/23 21:24:04;;;;;;;52.30;34.00;;;;;;;4.61;63.02;98650.39;447940;1267;141962;-60
2022/04/23 21:34:10;;;;;;;46.60;27.50;;;;;;;4.42;63.41;98650.05;447081;1266;142880;-59
2022/04/23 21:54:39;;;;;;;56.50;27.40;;;;;;;4.02;64.32;98639.30;447973;1267;142960;-59
2022/04/23 22:04:45;;;;;;;50.10;33.60;;;;;;;3.87;64.86;98636.62;447873;1267;142829;-59
2022/04/23 22:14:51;;;;;;;52.90;30.10;;;;;;;3.65;64.84;98637.39;447897;1268;155365;-65
2022/04/23 22:24:57;;;;;;;57.20;33.60;;;;;;;3.40;65.59;98635.18;447242;1267;143811;-66
2022/04/23 22:35:03;;;;;;;54.90;33.00;;;;;;;3.22;65.44;98631.39;447845;1267;144475;-65
2022/04/23 22:45:10;;;;;;;47.10;29.80;;;;;;;3.02;65.86;98640.48;448016;1267;143452;-65
2022/04/23 22:55:15;;;;;;;47.10;30.00;;;;;;;2.80;66.44;98644.26;439844;1269;141670;-65
2022/04/23 23:05:22;;;;;;;53.50;34.40;;;;;;;2.63;66.72;98650.41;447979;1266;141843;-65
2022/04/23 23:15:27;;;;;;;50.60;34.60;;;;;;;2.46;66.83;98647.56;447967;1266;141642;-65
2022/04/23 23:25:33;;;;;;;51.80;35.60;;;;;;;2.31;67.02;98647.55;447163;1267;142201;-66
2022/04/23 23:35:39;;;;;;;57.00;35.00;;;;;;;2.06;68.06;98647.60;447992;1267;142481;-65
2022/04/23 23:45:45;;;;;;;49.70;31.00;;;;;;;1.96;68.45;98644.41;447198;1266;142665;-64
2022/04/23 23:55:51;;;;;;;57.40;36.70;;;;;;;1.89;68.84;98646.10;447485;1269;309331;-69
